Track Трегубец Александра

Time Latitude Longitude Accuracy (66% radius in meters) Altitude (meters) Speed (km/hour) Bearing (degrees) Battery (%) GPS flag
09:28:05 60.371028 29.556353 8 72 0 77.776321411133 75 1 delete
09:27:52 60.371057 29.556337 16 88 0 158.18411254883 75 1 delete
09:27:37 60.371038 29.556401 6 74 0 158.18411254883 75 1 delete
09:27:35 60.371029 29.556389 8 73 0 158.18411254883 75 1 delete
09:27:30 60.370983 29.556355 8 76 0 158.18411254883 75 1 delete
09:27:25 60.370933 29.556336 12 80 0 158.18411254883 75 1 delete
09:27:12 60.370915 29.556335 8 82 0 136.26196289062 75 1 delete
09:27:00 60.370935 29.556369 8 71 0 170.16622924805 75 1 delete
09:26:57 60.370935 29.556359 8 70 0 170.16622924805 75 1 delete
09:26:48 60.370959 29.556293 12 90 0 170.16622924805 75 1 delete
09:26:36 60.370968 29.556277 4 89 0 213.68086242676 75 1 delete
09:26:35 60.370965 29.556287 4 88 0 213.68086242676 75 1 delete
09:26:24 60.370995 29.556331 12 92 0 213.68086242676 75 1 delete
09:26:16 60.370993 29.556360 12 83 0 213.68086242676 75 1 delete
09:26:11 60.370992 29.556452 12 75 0 213.68086242676 75 1 delete
09:26:00 60.370958 29.556525 6 67 0 213.68086242676 75 1 delete
09:25:59 60.370953 29.556525 24 67 0 213.68086242676 75 1 delete
09:25:47 60.370913 29.556513 8 76 0 213.68086242676 75 1 delete
09:25:44 60.370913 29.556501 8 76 0 213.68086242676 75 1 delete
09:25:33 60.370942 29.556430 12 79 0 213.68086242676 75 1 delete
09:25:27 60.370966 29.556349 6 82 0 213.68086242676 75 1 delete
09:25:21 60.370966 29.556249 6 86 0 213.68086242676 75 1 delete
09:25:20 60.370969 29.556222 6 86 0 213.68086242676 75 1 delete
09:25:09 60.370996 29.556118 8 94 0 213.68086242676 75 1 delete
09:25:02 60.370992 29.556163 8 89 0 213.68086242676 75 1 delete
09:24:57 60.370980 29.556240 8 82 0 213.68086242676 75 1 delete
09:24:55 60.370979 29.556254 6 79 0 213.68086242676 75 1 delete
09:24:45 60.370951 29.556277 8 89 0 213.68086242676 75 1 delete
09:24:41 60.370943 29.556312 12 87 0 213.68086242676 75 1 delete
09:24:33 60.370933 29.556378 6 77 0 213.68086242676 75 1 delete
09:24:19 60.370922 29.556398 6 76 0 213.68086242676 75 1 delete
09:24:12 60.370955 29.556316 8 78 0.3863308429718 213.68086242676 75 1 delete
09:24:06 60.370989 29.556337 8 81 0.064715802669525 221.36956787109 75 1 delete
09:23:54 60.370992 29.556350 6 79 0 216.02354431152 75 1 delete
09:23:39 60.370979 29.556397 4 68 0 216.02354431152 75 1 delete
09:23:38 60.370977 29.556399 6 64 0 216.02354431152 75 1 delete
09:23:27 60.370937 29.556355 6 73 0 216.02354431152 75 1 delete
09:23:26 60.370933 29.556354 12 73 0 216.02354431152 75 1 delete
09:23:19 60.370916 29.556274 4 83 0 216.02354431152 75 1 delete
09:23:14 60.370923 29.556214 8 87 0 216.02354431152 75 1 delete
09:23:10 60.370957 29.556235 16 91 0 216.02354431152 75 1 delete
09:23:01 60.370994 29.556316 4 91 0 216.02354431152 75 1 delete
09:22:48 60.370979 29.556356 4 72 0 216.02354431152 75 1 delete
09:22:41 60.370976 29.556341 4 74 0 216.02354431152 75 1 delete
09:22:36 60.370961 29.556321 6 74 0 216.02354431152 75 1 delete
09:22:24 60.370965 29.556329 4 73 0 216.02354431152 75 1 delete
09:22:11 60.370956 29.556338 6 73 0 216.02354431152 75 1 delete
09:21:59 60.370920 29.556330 6 63 0 216.02354431152 75 1 delete
09:21:50 60.370932 29.556323 6 65 0 216.02354431152 75 1 delete
09:21:46 60.370967 29.556356 8 67 0 216.02354431152 75 1 delete